Aviation Digital Data Service (ADDS)

Output produced by METARs form (1827 UTC 16 August 2018)
found at http://www.aviationweather.gov/adds/metars/
 
OAIX 161758Z 35014G22KT 9999 CLR 30/02 A2985 RMK AO2A PK WND 35026/13 SLP997 T03000023 10341 20298 52013 $
TAF AMD OAIX 161716Z 1617/1721 36015G25KT 9999 SKC 530005 QNH2976INS 
     TEMPO 1618/1620 35020G30KT 
     BECMG 1620/1621 36012G18KT 9999 SKC QNH2982INS 
     TEMPO 1713/1716 34015G25KT 530005 
     BECMG 1716/1717 34012KT 9999 SKC QNH2978INS TX36/1710Z TN21/1701Z
       
OAHR 161755Z 03008KT CAVOK 29/M01 Q1012 RMK A2991 BLU
TAF OAHR 161700Z 1618/1718 02010KT CAVOK 
     BECMG 1704/1706 02020KT 
     TEMPO 1707/1714 02025G35KT
       
OAJL 161755Z 18003KT 9000 HZ CLR 31/21 A2963 RMK AO2A SLP986 T03120223 10378 20341 52013
TAF OAJL 161600Z 1616/1722 VRB06KT 9000 HZ FEW120 QNH2954INS 
     BECMG 1620/1621 VRB06KT 9000 HZ SCT040 BKN100 QNH2958INS 
     TEMPO 1701/1706 VCTS BKN040CB 
     BECMG 1707/1708 08009KT 9000 HZ SKC QNH2953INS 
     BECMG 1711/1712 09010G15KT 9000 HZ SKC QNH2944INS 
     BECMG 1715/1716 VRB06KT 9000 HZ SKC QNH2946INS TX40/1710Z TN25/1700Z
       
OAKB 161750Z 14004KT CAVOK 25/16 Q1014 NOSIG RMK A2995 BLU BLU
TAF OAKB 161705Z 1618/1718 VRB02KT CAVOK 
     PROB40 
     TEMPO 1700/1704 5000 HZ 
     BECMG 1708/1710 36012KT 
     TEMPO 1712/1717 02020G30KT 5000 -BLDU
       
OAKN 161755Z 00000KT 9000 HZ CLR 28/M03 A2967 RMK AO2A SLP986 Q1004 PA3537 DA5929 52005
TAF OAKN 161500Z 1615/1721 24006KT 9000 DU SKC QNH2962INS 
     BECMG 1707/1708 26010G15KT 9000 DU SKC QNH2952INS 
     BECMG 1713/1714 VRB06KT 9000 DU SKC QNH2952INS TX41/1710Z TN26/1700Z
       
OAMS 161750Z 23008KT 9999 SKC 35/03 Q1006 BLU+BLU+
TAF OAMS 161705Z 1618/1718 22014KT 9999 NSW SKC 
     BECMG 1620/1622 22015G25KT 8000 NSW SKC 
     TEMPO 1702/1705 22020G30KT 4000 -BLDU SKC 
     BECMG 1704/1706 26015G25KT 9000 NSW SKC 
     BECMG 1712/1714 22012KT 9999 NSW SKC